232500 - Willow Creek near Pierce

Latitude:
42.18047º N
Longitude:
97.55484º W
Type:
Stream
River Basin:
Elkhorn
Source:
NeDNR

Info! The graphs are now plotted with new date ranges.
Warning! If you see this please check date range (or) the data is not available.

 to 


—— Provisional Data Subject to Revision ——

Instantaneous Discharge

232500 - Willow Creek near Pierce
- Ice Possible      - Equipment Malfunction
- Seasonal      -Rating in Development
- Measured



Instantaneous Stage

232500 - Willow Creek near Pierce
- Ice Possible      - Equipment Malfunction
- Seasonal      -Rating in Development
- Measured



 to 


—— Provisional Data Subject to Revision ——

Daily Discharge

232500 - Willow Creek near Pierce
- Approved      - Provisional


Export
Date Time Discharge (cfs) Stage (feet) Shift (feet)
01/07/2020 15:15 75.3 4.16 0.27
12/05/2019 15:00 101 4.52 0.15
11/06/2019 13:00 41.4 3.76 0.31
10/17/2019 11:45 39.8 3.78 0.27
09/05/2019 11:30 58.2 4.10 0.15
08/22/2019 11:00 46.2 3.98 0.15
07/29/2019 13:00 15.1 3.42 0.28
07/01/2019 12:15 67.8 4.20 0.16
02/11/2019 9:57 21.5 3.58 0.22
01/03/2019 11:30 50.2 4.02 0.15
12/17/2018 16:00 52.7 3.94 0.26
11/06/2018 9:30 57.0 4.10 0.14
10/12/2018 11:10 83.0 4.40 0.11
09/12/2018 12:00 33.9 3.78 0.20
08/30/2018 13:00 28.7 3.66 0.25
08/02/2018 12:00 227 5.65 -0.07
07/26/2018 12:00 85.4 4.34 0.19
05/29/2018 15:03 36.2 3.76 0.25
03/28/2018 10:41 104 4.60 0.10
03/07/2018 11:52 108 4.68 0.06
01/29/2018 10:05 14.2 3.39 0.29
12/13/2017 10:03 24.6 3.58 0.27
11/01/2017 15:18 25.3 3.60 0.26
10/16/2017 13:44 103 4.55 0.14
09/12/2017 11:30 3.59 3.00 0.20
08/23/2017 13:43 4.58 2.94 0.37
07/25/2017 15:57 2.53 2.70 0.30
06/27/2017 13:17 3.37 3.20 -0.03
05/25/2017 13:31 134 4.92 0.03
05/08/2017 12:30 106 4.72 -0.01
03/30/2017 13:54 54.5 4.25 -0.03
02/28/2017 14:03 33.9 4.01 -0.03
02/17/2017 14:56 46.7 4.10 0.03
02/06/2017 14:15 18.5 3.83 -0.07
12/28/2016 14:54 15.8 3.70 0.01
11/16/2016 11:53 6.01 3.26 0.14
10/11/2016 14:47 4.43 3.18 0.12
09/08/2016 14:47 3.74 3.15 0.07
08/10/2016 11:25 3.38 3.12 0.05
06/30/2016 10:54 16.6 3.66 0.06
06/08/2016 14:22 54.5 4.15 0.07
05/18/2016 12:35 83.4 4.48 0.03
03/31/2016 16:50 101 4.70 -0.03
03/03/2016 15:00 43.1 4.18 -0.09
01/20/2016 14:00 15.8 3.73 -0.02
12/30/2015 16:00 22.8 3.85 -0.03
12/08/2015 14:30 23.4 3.82 0.01
11/02/2015 15:30 4.62 3.20 0.12
10/07/2015 17:30 4.88 3.24 0.09
09/03/2015 20:00 4.41 3.08 0.22
08/03/2015 16:30 8.82 3.36 0.17
06/25/2015 12:15 26.3 3.96 -0.08
06/05/2015 12:30 92.6 4.70 -0.10
05/05/2015 17:45 8.55 3.54 -0.02
03/12/2015 15:15 10.8 3.68 -0.08
01/22/2015 14:00 5.06 3.55 -0.20
12/22/2014 16:00 12.1 3.61 0.02
12/03/2014 14:30 2.58 3.23 -0.21
09/10/2014 16:45 4.18 3.36 -0.09
08/04/2014 12:30 2.28 3.18 -0.25
06/19/2014 13:45 1.99 3.33 -0.49
05/30/2014 13:15 3.49 3.25 -0.06
05/08/2014 18:00 3.48 3.28 -0.09
03/13/2014 14:45 3.26 3.20 -0.04
02/26/2014 14:00 3.34 3.25 -0.08
01/17/2014 12:00 2.86 3.28 -0.20
12/02/2013 12:30 2.13 3.22 -0.34
11/06/2013 13:00 3.17 3.20 -0.06
10/07/2013 14:10 2.21 3.04 -0.06
09/25/2013 10:50 2.06 2.86 0.11
08/19/2013 13:20 2.89 3.06 -0.04
05/16/2013 11:10 3.96 3.20 -0.13
04/02/2013 13:20 3.34 3.24 -0.20
03/08/2013 11:30 3.21 3.20 -0.17
01/09/2013 15:25 3.11 3.26 -0.23
11/14/2012 10:45 2.41 3.10 -0.11
10/02/2012 13:30 1.83 2.88 0.07
09/17/2012 14:55 1.37 2.64 0.28
07/18/2012 10:25 1.70 2.72 0.22
06/18/2012 15:30 3.76 3.09 -0.03
05/07/2012 14:05 27.5 3.88 -0.21
04/09/2012 15:30 14.4 3.60 -0.20
03/06/2012 12:35 41.8 4.06 -0.17
01/04/2012 14:30 20.6 3.74 -0.20
12/19/2011 14:50 19.8 3.74 -0.22
11/01/2011 12:00 4.47 3.26 -0.17
10/10/2011 14:45 4.41 3.26 -0.17
09/13/2011 13:55 4.04 3.19 -0.12
08/15/2011 13:20 4.88 3.20 -0.09
07/08/2011 11:00 38.5 4.01 -0.17
06/06/2011 15:00 84.8 4.50 -0.11
05/09/2011 14:40 41.5 4.11 -0.22
04/11/2011 14:30 43.4 4.13 -0.22
03/16/2011 15:10 61.1 4.24 -0.10
02/16/2011 13:00 50.5 4.13 -0.12
01/06/2011 12:30 21.8 3.75 -0.19
12/03/2010 11:00 20.8 3.76 -0.22
11/09/2010 9:10 19.9 3.72 -0.20
10/28/2010 15:10 21.0 3.72 -0.17
09/01/2010 16:12 9.71 3.58 -0.30
08/06/2010 12:00 166 5.17 -0.12
07/19/2010 15:50 56.6 4.22 -0.14
06/17/2010 12:00 492 7.10 -0.37
06/02/2010 15:15 39.0 4.02 -0.17
05/18/2010 10:40 36.5 3.98 -0.17
04/02/2010 10:00 56.0 4.24 -0.16
03/22/2010 14:45 131 4.95 -0.16
03/03/2010 13:00 20.2 3.80 -0.27
02/03/2010 13:30 23.5 3.82 -0.23
01/13/2010 14:10 14.4 3.61 -0.21
12/01/2009 10:00 5.99 3.22 -0.07
11/10/2009 10:30 40.8 4.04 -0.16
10/07/2009 13:25 58.5 4.28 -0.17
09/15/2009 13:10 7.00 3.36 -0.17
08/24/2009 14:40 18.4 3.66 -0.17
08/02/2009 14:45 3.02 3.06 -0.04
06/29/2009 15:30 22.2 3.81 -0.24
05/28/2009 14:15 15.2 3.68 -0.26
04/01/2009 15:15 53.2 4.24 -0.20
03/04/2009 14:10 33.6 4.00 -0.23
01/28/2009 13:30 20.4 3.78 -0.25
12/18/2008 13:40 23.4 3.85 -0.26
11/03/2008 15:23 39.7 4.18 -0.32
10/14/2008 11:30 9.33 3.67 -0.40
09/03/2008 12:15 3.12 3.16 -0.13
08/01/2008 13:40 3.84 3.29 -0.22
07/02/2008 15:05 26.6 3.94 -0.29
06/11/2008 14:20 194 5.45 -0.21
05/01/2008 15:10 57.2 4.20 -0.11
04/14/2008 13:35 114 4.75 -0.10
03/13/2008 15:20 61.9 4.28 -0.13
02/08/2008 13:35 10.8 3.74 -0.43
01/28/2008 13:45 12.6 3.76 -0.40
12/30/2007 16:15 32.0 3.90 -0.16
11/30/2007 16:30 21.2 3.76 -0.21
10/26/2007 15:00 121 4.76 -0.05
09/27/2007 12:19 10.2 3.52 -0.23
08/16/2007 14:30 5.19 3.16 -0.04
07/05/2007 15:00 4.41 3.18 -0.09
06/06/2007 14:01 96.3 4.62 -0.12
05/14/2007 15:29 64.0 4.30 -0.13
04/30/2007 13:05 219 5.54 -0.14
04/09/2007 15:29 71.3 4.50 -0.25
03/12/2007 13:23 62.8 4.45 -0.29
02/15/2007 14:17 10.6 3.61 -0.31
01/11/2007 10:51 13.9 3.67 -0.28
12/27/2006 15:00 5.50 3.36 -0.22
11/02/2006 11:28 4.78 3.30 -0.19
10/03/2006 13:04 4.98 3.26 -0.14
09/14/2006 15:05 3.91 3.34 -0.27
08/22/2006 1:00 4.73 3.24 -0.14
07/06/2006 15:45 4.22 3.20 -0.12
06/08/2006 14:17 5.28 3.27 -0.14
05/01/2006 15:58 29.9 3.89 -0.18
04/03/2006 15:52 130 5.00 -0.21
03/08/2006 12:30 6.22 3.30 -0.14
02/15/2006 15:25 5.83 3.29 -0.14
01/04/2006 13:40 1.89 3.28 -0.32
12/27/2005 13:16 4.64 3.28 -0.18
11/02/2005 11:41 4.86 3.28 -0.17
10/05/2005 16:27 4.22 3.26 -0.18
09/12/2005 16:17 3.77 3.25 -0.19
06/14/2005 11:10 71.9 4.40 -0.14
05/13/2005 14:52 64.6 4.32 -0.14
05/03/2005 12:55 35.7 4.00 -0.20
04/27/2005 14:15 77.7 4.38 -0.06
04/04/2005 15:37 5.32 3.20 -0.07
03/02/2005 0:00 5.34 3.16 -0.03
02/11/2005 0:00 4.76 3.14 -0.03
01/20/2005 0:00 5.64 3.08 0.06
12/15/2004 0:00 9.91 3.02 0.26
11/04/2004 0:00 7.11 2.90 0.30
10/04/2004 1:00 4.60 3.19 -0.09
09/02/2004 1:00 2.62 3.12 -0.12
08/03/2004 1:00 3.20 3.13 -0.10
07/01/2004 1:00 6.57 3.29 -0.11
06/02/2004 1:00 5.71 3.30 -0.16
05/14/2004 1:00 4.95 3.24 -0.13
04/22/2004 1:00 5.97 3.22 -0.07
04/06/2004 1:00 5.28 3.16 -0.03
03/08/2004 0:00 5.47 3.12 0.01
02/19/2004 0:00 4.23 3.09 -0.01
01/02/2004 0:00 4.40 3.02 0.07
12/11/2003 0:00 4.20 2.97 0.11
11/05/2003 0:00 3.78 2.95 0.11
10/15/2003 1:00 3.92 3.03 0.04
09/26/2003 1:00 3.23 3.02 0.02
09/15/2003 1:00 2.95 3.02 0.00
Export



Download Rating Curve
  
2.00     0.00
2.01     0.00
2.02     0.01
2.03     0.02
2.04     0.03
2.05     0.04
2.06     0.05
2.07     0.07
2.08     0.08
2.09     0.10
2.10     0.11
2.11     0.13
2.12     0.14
2.13     0.16
2.14     0.17
2.15     0.19
2.16     0.21
2.17     0.23
2.18     0.24
2.19     0.26
2.20     0.28
2.21     0.30
2.22     0.32
2.23     0.34
2.24     0.36
2.25     0.38
2.26     0.40
2.27     0.42
2.28     0.45
2.29     0.47
2.30     0.49
2.31     0.51
2.32     0.54
2.33     0.56
2.34     0.58
2.35     0.60
2.36     0.63
2.37     0.65
2.38     0.68
2.39     0.70
2.40     0.73
2.41     0.75
2.42     0.78
2.43     0.80
2.44     0.83
2.45     0.85
2.46     0.88
2.47     0.90
2.48     0.93
2.49     0.96
2.50     0.98
2.51     1.01
2.52     1.04
2.53     1.06
2.54     1.09
2.55     1.12
2.56     1.15
2.57     1.17
2.58     1.20
2.59     1.23
2.60     1.26
2.61     1.29
2.62     1.32
2.63     1.35
2.64     1.37
2.65     1.40
2.66     1.43
2.67     1.46
2.68     1.49
2.69     1.52
2.70     1.55
2.71     1.58
2.72     1.61
2.73     1.65
2.74     1.68
2.75     1.71
2.76     1.74
2.77     1.77
2.78     1.81
2.79     1.84
2.80     1.87
2.81     1.90
2.82     1.94
2.83     1.97
2.84     2.00
2.85     2.03
2.86     2.06
2.87     2.10
2.88     2.13
2.89     2.16
2.90     2.19
2.91     2.22
2.92     2.26
2.93     2.29
2.94     2.32
2.95     2.35
2.96     2.38
2.97     2.42
2.98     2.45
2.99     2.48
Download Rating Curve